sensor_id;sensor_type;location;lat;lon;timestamp;temperature;humidity
55369;DHT22;41247;49.736;8.752;2023-12-29T00:01:36;8.20;99.90
55369;DHT22;41247;49.736;8.752;2023-12-29T00:05:17;8.20;99.90
55369;DHT22;41247;49.736;8.752;2023-12-29T00:08:58;8.10;99.90
55369;DHT22;41247;49.736;8.752;2023-12-29T00:12:38;8.10;99.90
55369;DHT22;41247;49.736;8.752;2023-12-29T00:16:19;8.00;99.90
55369;DHT22;41247;49.736;8.752;2023-12-29T00:19:59;8.00;99.90
55369;DHT22;41247;49.736;8.752;2023-12-29T00:23:40;8.00;99.90
55369;DHT22;41247;49.736;8.752;2023-12-29T00:27:21;8.00;99.90
55369;DHT22;41247;49.736;8.752;2023-12-29T00:31:01;8.00;99.90
55369;DHT22;41247;49.736;8.752;2023-12-29T00:34:42;8.10;99.90
55369;DHT22;41247;49.736;8.752;2023-12-29T00:38:22;8.10;99.90
55369;DHT22;41247;49.736;8.752;2023-12-29T00:42:03;8.10;99.90
55369;DHT22;41247;49.736;8.752;2023-12-29T00:45:44;8.10;99.90
55369;DHT22;41247;49.736;8.752;2023-12-29T00:49:25;8.10;99.90
55369;DHT22;41247;49.736;8.752;2023-12-29T00:53:05;8.10;99.90
55369;DHT22;41247;49.736;8.752;2023-12-29T00:56:50;8.10;99.90
55369;DHT22;41247;49.736;8.752;2023-12-29T01:00:31;8.10;99.90
55369;DHT22;41247;49.736;8.752;2023-12-29T01:04:11;8.10;99.90
55369;DHT22;41247;49.736;8.752;2023-12-29T01:07:52;8.10;99.90
55369;DHT22;41247;49.736;8.752;2023-12-29T01:11:33;8.10;99.90
55369;DHT22;41247;49.736;8.752;2023-12-29T01:15:13;8.10;99.90
55369;DHT22;41247;49.736;8.752;2023-12-29T01:18:54;8.00;99.90
55369;DHT22;41247;49.736;8.752;2023-12-29T01:22:34;8.10;99.90
55369;DHT22;41247;49.736;8.752;2023-12-29T01:26:15;8.10;99.90
55369;DHT22;41247;49.736;8.752;2023-12-29T01:29:56;8.10;99.90
55369;DHT22;41247;49.736;8.752;2023-12-29T01:33:36;8.00;99.90
55369;DHT22;41247;49.736;8.752;2023-12-29T01:37:17;8.00;99.90
55369;DHT22;41247;49.736;8.752;2023-12-29T01:40:57;8.00;99.90
55369;DHT22;41247;49.736;8.752;2023-12-29T01:44:38;8.00;99.90
55369;DHT22;41247;49.736;8.752;2023-12-29T01:48:19;8.00;99.90
55369;DHT22;41247;49.736;8.752;2023-12-29T01:52:01;8.00;99.90
55369;DHT22;41247;49.736;8.752;2023-12-29T01:55:42;8.00;99.90
55369;DHT22;41247;49.736;8.752;2023-12-29T01:59:25;8.00;99.90
55369;DHT22;41247;49.736;8.752;2023-12-29T02:03:05;8.00;99.90
55369;DHT22;41247;49.736;8.752;2023-12-29T02:06:46;8.00;99.90
55369;DHT22;41247;49.736;8.752;2023-12-29T02:10:27;8.00;99.90
55369;DHT22;41247;49.736;8.752;2023-12-29T02:14:08;8.00;99.90
55369;DHT22;41247;49.736;8.752;2023-12-29T02:17:56;8.00;99.90
55369;DHT22;41247;49.736;8.752;2023-12-29T02:21:42;8.00;99.90
55369;DHT22;41247;49.736;8.752;2023-12-29T02:25:22;8.00;99.90
55369;DHT22;41247;49.736;8.752;2023-12-29T02:29:07;7.90;99.90
55369;DHT22;41247;49.736;8.752;2023-12-29T02:32:54;8.00;99.90
55369;DHT22;41247;49.736;8.752;2023-12-29T02:36:35;7.90;99.90
55369;DHT22;41247;49.736;8.752;2023-12-29T02:40:16;7.90;99.90
55369;DHT22;41247;49.736;8.752;2023-12-29T02:43:57;7.90;99.90
55369;DHT22;41247;49.736;8.752;2023-12-29T02:47:38;7.90;99.90
55369;DHT22;41247;49.736;8.752;2023-12-29T02:51:18;8.00;99.90
55369;DHT22;41247;49.736;8.752;2023-12-29T02:54:59;7.90;99.90
55369;DHT22;41247;49.736;8.752;2023-12-29T02:58:39;7.90;99.90
55369;DHT22;41247;49.736;8.752;2023-12-29T03:02:20;7.90;99.90
55369;DHT22;41247;49.736;8.752;2023-12-29T03:06:01;7.90;99.90
55369;DHT22;41247;49.736;8.752;2023-12-29T03:09:41;7.80;99.90
55369;DHT22;41247;49.736;8.752;2023-12-29T03:13:22;7.80;99.90
55369;DHT22;41247;49.736;8.752;2023-12-29T03:17:03;7.80;99.90
55369;DHT22;41247;49.736;8.752;2023-12-29T03:20:44;7.80;99.90
55369;DHT22;41247;49.736;8.752;2023-12-29T03:24:24;7.80;99.90
55369;DHT22;41247;49.736;8.752;2023-12-29T03:28:05;7.80;99.90
55369;DHT22;41247;49.736;8.752;2023-12-29T03:31:45;7.70;99.90
55369;DHT22;41247;49.736;8.752;2023-12-29T03:35:26;7.70;99.90
55369;DHT22;41247;49.736;8.752;2023-12-29T03:39:07;7.60;99.90
55369;DHT22;41247;49.736;8.752;2023-12-29T03:42:47;7.60;99.90
55369;DHT22;41247;49.736;8.752;2023-12-29T03:46:28;7.60;99.90
55369;DHT22;41247;49.736;8.752;2023-12-29T03:50:08;7.50;99.90
55369;DHT22;41247;49.736;8.752;2023-12-29T03:53:49;7.60;99.90
55369;DHT22;41247;49.736;8.752;2023-12-29T03:57:30;7.50;99.90
55369;DHT22;41247;49.736;8.752;2023-12-29T04:01:14;7.40;99.90
55369;DHT22;41247;49.736;8.752;2023-12-29T04:04:56;7.40;99.90
55369;DHT22;41247;49.736;8.752;2023-12-29T04:08:37;7.50;99.90
55369;DHT22;41247;49.736;8.752;2023-12-29T04:12:18;7.50;99.90
55369;DHT22;41247;49.736;8.752;2023-12-29T04:15:59;7.50;99.90
55369;DHT22;41247;49.736;8.752;2023-12-29T04:19:40;7.50;99.90
55369;DHT22;41247;49.736;8.752;2023-12-29T04:23:21;7.50;99.90
55369;DHT22;41247;49.736;8.752;2023-12-29T04:27:02;7.50;99.90
55369;DHT22;41247;49.736;8.752;2023-12-29T04:30:42;7.50;99.90
55369;DHT22;41247;49.736;8.752;2023-12-29T04:34:23;7.50;99.90
55369;DHT22;41247;49.736;8.752;2023-12-29T04:38:03;7.60;99.90
55369;DHT22;41247;49.736;8.752;2023-12-29T04:41:44;7.60;99.90
55369;DHT22;41247;49.736;8.752;2023-12-29T04:45:25;7.60;99.90
55369;DHT22;41247;49.736;8.752;2023-12-29T04:49:05;7.70;99.90
55369;DHT22;41247;49.736;8.752;2023-12-29T04:52:46;7.60;99.90
55369;DHT22;41247;49.736;8.752;2023-12-29T04:56:27;7.80;99.90
55369;DHT22;41247;49.736;8.752;2023-12-29T05:00:08;7.80;99.90
55369;DHT22;41247;49.736;8.752;2023-12-29T05:03:48;7.70;99.90
55369;DHT22;41247;49.736;8.752;2023-12-29T05:07:29;7.70;99.90
55369;DHT22;41247;49.736;8.752;2023-12-29T05:11:12;7.60;99.90
55369;DHT22;41247;49.736;8.752;2023-12-29T05:14:56;7.60;99.90
55369;DHT22;41247;49.736;8.752;2023-12-29T05:18:36;7.60;99.90
55369;DHT22;41247;49.736;8.752;2023-12-29T05:22:17;7.60;99.90
55369;DHT22;41247;49.736;8.752;2023-12-29T05:25:58;7.60;99.90
55369;DHT22;41247;49.736;8.752;2023-12-29T05:29:38;7.60;99.90
55369;DHT22;41247;49.736;8.752;2023-12-29T05:33:19;7.60;99.90
55369;DHT22;41247;49.736;8.752;2023-12-29T05:36:59;7.60;99.90
55369;DHT22;41247;49.736;8.752;2023-12-29T05:40:40;7.60;99.90
55369;DHT22;41247;49.736;8.752;2023-12-29T05:44:21;7.60;99.90
55369;DHT22;41247;49.736;8.752;2023-12-29T05:48:01;7.60;99.90
55369;DHT22;41247;49.736;8.752;2023-12-29T05:51:43;7.60;99.90
55369;DHT22;41247;49.736;8.752;2023-12-29T05:55:24;7.50;99.90
55369;DHT22;41247;49.736;8.752;2023-12-29T05:59:05;7.50;99.90
55369;DHT22;41247;49.736;8.752;2023-12-29T06:02:46;7.50;99.90
55369;DHT22;41247;49.736;8.752;2023-12-29T06:06:26;7.50;99.90
55369;DHT22;41247;49.736;8.752;2023-12-29T06:10:07;7.50;99.90
55369;DHT22;41247;49.736;8.752;2023-12-29T06:13:48;7.60;99.90
55369;DHT22;41247;49.736;8.752;2023-12-29T06:17:29;7.60;99.90
55369;DHT22;41247;49.736;8.752;2023-12-29T06:21:09;7.60;99.90
55369;DHT22;41247;49.736;8.752;2023-12-29T06:24:50;7.70;99.90
55369;DHT22;41247;49.736;8.752;2023-12-29T06:28:31;7.80;99.90
55369;DHT22;41247;49.736;8.752;2023-12-29T06:32:12;7.80;99.90
55369;DHT22;41247;49.736;8.752;2023-12-29T06:35:53;7.80;99.90
55369;DHT22;41247;49.736;8.752;2023-12-29T06:39:33;7.90;99.90
55369;DHT22;41247;49.736;8.752;2023-12-29T06:43:14;7.90;99.90
55369;DHT22;41247;49.736;8.752;2023-12-29T06:46:55;8.00;99.90
55369;DHT22;41247;49.736;8.752;2023-12-29T06:50:36;8.00;99.90
55369;DHT22;41247;49.736;8.752;2023-12-29T06:54:16;8.00;99.90
55369;DHT22;41247;49.736;8.752;2023-12-29T06:57:57;8.00;99.90
55369;DHT22;41247;49.736;8.752;2023-12-29T07:01:40;8.00;99.90
55369;DHT22;41247;49.736;8.752;2023-12-29T07:05:21;8.00;99.90
55369;DHT22;41247;49.736;8.752;2023-12-29T07:09:02;8.00;99.90
55369;DHT22;41247;49.736;8.752;2023-12-29T07:12:43;8.00;99.90
55369;DHT22;41247;49.736;8.752;2023-12-29T07:16:23;8.00;99.90
55369;DHT22;41247;49.736;8.752;2023-12-29T07:20:04;8.00;99.90
55369;DHT22;41247;49.736;8.752;2023-12-29T07:23:46;8.00;99.90
55369;DHT22;41247;49.736;8.752;2023-12-29T07:27:27;8.00;99.90
55369;DHT22;41247;49.736;8.752;2023-12-29T07:31:07;7.90;99.90
55369;DHT22;41247;49.736;8.752;2023-12-29T07:34:48;7.90;99.90
55369;DHT22;41247;49.736;8.752;2023-12-29T07:38:28;7.90;99.90
55369;DHT22;41247;49.736;8.752;2023-12-29T07:42:11;7.90;99.90
55369;DHT22;41247;49.736;8.752;2023-12-29T07:45:51;7.90;99.90
55369;DHT22;41247;49.736;8.752;2023-12-29T07:49:32;7.90;99.90
55369;DHT22;41247;49.736;8.752;2023-12-29T07:53:13;8.00;99.90
55369;DHT22;41247;49.736;8.752;2023-12-29T07:56:53;8.00;99.90
55369;DHT22;41247;49.736;8.752;2023-12-29T08:00:34;8.00;99.90
55369;DHT22;41247;49.736;8.752;2023-12-29T08:04:15;8.10;99.90
55369;DHT22;41247;49.736;8.752;2023-12-29T08:07:55;8.10;99.90
55369;DHT22;41247;49.736;8.752;2023-12-29T08:11:36;8.10;99.90
55369;DHT22;41247;49.736;8.752;2023-12-29T08:15:16;8.10;99.90
55369;DHT22;41247;49.736;8.752;2023-12-29T08:18:57;8.10;99.90
55369;DHT22;41247;49.736;8.752;2023-12-29T08:22:37;8.20;99.90
55369;DHT22;41247;49.736;8.752;2023-12-29T08:26:18;8.20;99.90
55369;DHT22;41247;49.736;8.752;2023-12-29T08:29:58;8.20;99.90
55369;DHT22;41247;49.736;8.752;2023-12-29T08:33:39;8.20;99.90
55369;DHT22;41247;49.736;8.752;2023-12-29T08:37:20;8.20;99.90
55369;DHT22;41247;49.736;8.752;2023-12-29T08:41:00;8.20;99.90
55369;DHT22;41247;49.736;8.752;2023-12-29T08:44:41;8.30;99.90
55369;DHT22;41247;49.736;8.752;2023-12-29T08:48:22;8.30;99.90
55369;DHT22;41247;49.736;8.752;2023-12-29T08:52:03;8.40;99.90
55369;DHT22;41247;49.736;8.752;2023-12-29T08:55:45;8.50;99.90
55369;DHT22;41247;49.736;8.752;2023-12-29T08:59:25;8.50;99.90
55369;DHT22;41247;49.736;8.752;2023-12-29T09:03:06;8.50;99.90
55369;DHT22;41247;49.736;8.752;2023-12-29T09:06:47;8.50;99.90
55369;DHT22;41247;49.736;8.752;2023-12-29T09:10:28;8.50;99.90
55369;DHT22;41247;49.736;8.752;2023-12-29T09:14:08;8.60;99.90
55369;DHT22;41247;49.736;8.752;2023-12-29T09:17:49;8.60;99.90
55369;DHT22;41247;49.736;8.752;2023-12-29T09:21:29;8.60;99.90
55369;DHT22;41247;49.736;8.752;2023-12-29T09:25:10;8.70;99.90
55369;DHT22;41247;49.736;8.752;2023-12-29T09:28:50;8.80;99.90
55369;DHT22;41247;49.736;8.752;2023-12-29T09:32:31;8.80;99.90
55369;DHT22;41247;49.736;8.752;2023-12-29T09:36:12;8.90;99.90
55369;DHT22;41247;49.736;8.752;2023-12-29T09:39:52;9.00;99.90
55369;DHT22;41247;49.736;8.752;2023-12-29T09:43:33;9.00;99.90
55369;DHT22;41247;49.736;8.752;2023-12-29T09:47:14;9.00;99.90
55369;DHT22;41247;49.736;8.752;2023-12-29T09:51:06;9.00;99.90
55369;DHT22;41247;49.736;8.752;2023-12-29T09:54:49;9.10;99.90
55369;DHT22;41247;49.736;8.752;2023-12-29T09:58:32;9.10;99.90
55369;DHT22;41247;49.736;8.752;2023-12-29T10:02:15;9.20;99.90
55369;DHT22;41247;49.736;8.752;2023-12-29T10:06:00;9.20;99.90
55369;DHT22;41247;49.736;8.752;2023-12-29T10:09:42;9.20;99.90
55369;DHT22;41247;49.736;8.752;2023-12-29T10:13:25;9.30;99.90
55369;DHT22;41247;49.736;8.752;2023-12-29T10:17:25;9.30;99.90
55369;DHT22;41247;49.736;8.752;2023-12-29T10:21:28;9.30;99.90
55369;DHT22;41247;49.736;8.752;2023-12-29T10:25:10;9.30;99.90
55369;DHT22;41247;49.736;8.752;2023-12-29T10:28:51;9.20;99.90
55369;DHT22;41247;49.736;8.752;2023-12-29T10:32:32;9.30;99.90
55369;DHT22;41247;49.736;8.752;2023-12-29T10:36:13;9.30;99.90
55369;DHT22;41247;49.736;8.752;2023-12-29T10:39:55;9.30;99.90
55369;DHT22;41247;49.736;8.752;2023-12-29T10:43:36;9.20;99.90
55369;DHT22;41247;49.736;8.752;2023-12-29T10:47:17;9.20;99.90
55369;DHT22;41247;49.736;8.752;2023-12-29T10:50:58;9.10;99.90
55369;DHT22;41247;49.736;8.752;2023-12-29T10:54:38;9.10;99.90
55369;DHT22;41247;49.736;8.752;2023-12-29T10:58:19;9.10;99.90
55369;DHT22;41247;49.736;8.752;2023-12-29T11:02:01;9.10;99.90
55369;DHT22;41247;49.736;8.752;2023-12-29T11:05:42;9.10;99.90
55369;DHT22;41247;49.736;8.752;2023-12-29T11:09:29;9.10;99.90
55369;DHT22;41247;49.736;8.752;2023-12-29T11:13:11;9.10;99.90
55369;DHT22;41247;49.736;8.752;2023-12-29T11:16:52;9.10;99.90
55369;DHT22;41247;49.736;8.752;2023-12-29T11:20:36;9.10;99.90
55369;DHT22;41247;49.736;8.752;2023-12-29T11:24:18;9.20;99.90
55369;DHT22;41247;49.736;8.752;2023-12-29T11:27:59;9.30;99.90
55369;DHT22;41247;49.736;8.752;2023-12-29T11:31:40;9.40;99.90
55369;DHT22;41247;49.736;8.752;2023-12-29T11:36:04;9.40;99.90
55369;DHT22;41247;49.736;8.752;2023-12-29T11:39:37;9.50;99.90
55369;DHT22;41247;49.736;8.752;2023-12-29T11:43:20;9.50;99.90
55369;DHT22;41247;49.736;8.752;2023-12-29T11:47:01;9.50;99.90
55369;DHT22;41247;49.736;8.752;2023-12-29T11:50:42;9.50;99.90
55369;DHT22;41247;49.736;8.752;2023-12-29T11:54:26;9.40;99.90
55369;DHT22;41247;49.736;8.752;2023-12-29T11:58:26;9.40;99.90
55369;DHT22;41247;49.736;8.752;2023-12-29T12:02:27;9.50;99.90
55369;DHT22;41247;49.736;8.752;2023-12-29T12:06:08;9.50;99.90
55369;DHT22;41247;49.736;8.752;2023-12-29T12:09:49;9.50;99.90
55369;DHT22;41247;49.736;8.752;2023-12-29T12:13:46;9.50;99.90
55369;DHT22;41247;49.736;8.752;2023-12-29T12:21:17;9.50;99.90
55369;DHT22;41247;49.736;8.752;2023-12-29T12:24:59;9.50;99.90
55369;DHT22;41247;49.736;8.752;2023-12-29T12:28:40;9.50;99.90
55369;DHT22;41247;49.736;8.752;2023-12-29T12:32:21;9.50;99.90
55369;DHT22;41247;49.736;8.752;2023-12-29T12:36:01;9.60;99.90
55369;DHT22;41247;49.736;8.752;2023-12-29T12:39:42;9.60;99.90
55369;DHT22;41247;49.736;8.752;2023-12-29T12:43:25;9.60;99.90
55369;DHT22;41247;49.736;8.752;2023-12-29T12:47:08;9.70;99.90
55369;DHT22;41247;49.736;8.752;2023-12-29T12:50:50;9.70;99.90
55369;DHT22;41247;49.736;8.752;2023-12-29T12:54:31;9.80;99.90
55369;DHT22;41247;49.736;8.752;2023-12-29T12:58:12;9.80;99.90
55369;DHT22;41247;49.736;8.752;2023-12-29T13:01:52;9.80;99.90
55369;DHT22;41247;49.736;8.752;2023-12-29T13:05:33;9.80;99.90
55369;DHT22;41247;49.736;8.752;2023-12-29T13:09:15;9.80;99.90
55369;DHT22;41247;49.736;8.752;2023-12-29T13:12:56;9.80;99.90
55369;DHT22;41247;49.736;8.752;2023-12-29T13:16:37;9.80;99.90
55369;DHT22;41247;49.736;8.752;2023-12-29T13:20:18;9.90;99.90
55369;DHT22;41247;49.736;8.752;2023-12-29T13:24:03;9.90;99.90
55369;DHT22;41247;49.736;8.752;2023-12-29T13:27:44;9.90;99.90
55369;DHT22;41247;49.736;8.752;2023-12-29T13:31:25;9.90;99.90
55369;DHT22;41247;49.736;8.752;2023-12-29T13:35:16;9.90;99.90
55369;DHT22;41247;49.736;8.752;2023-12-29T13:39:11;9.90;99.90
55369;DHT22;41247;49.736;8.752;2023-12-29T13:43:00;9.80;99.90
55369;DHT22;41247;49.736;8.752;2023-12-29T13:46:42;9.90;99.90
55369;DHT22;41247;49.736;8.752;2023-12-29T13:50:23;9.80;99.90
55369;DHT22;41247;49.736;8.752;2023-12-29T13:54:03;9.80;99.90
55369;DHT22;41247;49.736;8.752;2023-12-29T13:57:44;9.80;99.90
55369;DHT22;41247;49.736;8.752;2023-12-29T14:01:25;9.80;99.90
55369;DHT22;41247;49.736;8.752;2023-12-29T14:05:27;9.70;99.90
55369;DHT22;41247;49.736;8.752;2023-12-29T14:09:17;9.70;99.90
55369;DHT22;41247;49.736;8.752;2023-12-29T14:13:17;9.70;99.90
55369;DHT22;41247;49.736;8.752;2023-12-29T14:16:57;9.70;99.90
55369;DHT22;41247;49.736;8.752;2023-12-29T14:20:41;9.70;99.90
55369;DHT22;41247;49.736;8.752;2023-12-29T14:24:21;9.70;99.90
55369;DHT22;41247;49.736;8.752;2023-12-29T14:28:15;9.70;99.90
55369;DHT22;41247;49.736;8.752;2023-12-29T14:31:56;9.70;99.90
55369;DHT22;41247;49.736;8.752;2023-12-29T14:35:38;9.80;99.90
55369;DHT22;41247;49.736;8.752;2023-12-29T14:39:19;9.80;99.90
55369;DHT22;41247;49.736;8.752;2023-12-29T14:43:00;9.80;99.90
55369;DHT22;41247;49.736;8.752;2023-12-29T14:46:41;9.80;99.90
55369;DHT22;41247;49.736;8.752;2023-12-29T14:50:22;9.70;99.90
55369;DHT22;41247;49.736;8.752;2023-12-29T14:54:02;9.70;99.90
55369;DHT22;41247;49.736;8.752;2023-12-29T14:57:43;9.60;99.90
55369;DHT22;41247;49.736;8.752;2023-12-29T15:01:23;9.60;99.90
55369;DHT22;41247;49.736;8.752;2023-12-29T15:05:04;9.60;99.90
55369;DHT22;41247;49.736;8.752;2023-12-29T15:08:45;9.50;99.90
55369;DHT22;41247;49.736;8.752;2023-12-29T15:12:25;9.40;99.90
55369;DHT22;41247;49.736;8.752;2023-12-29T15:16:06;9.40;99.90
55369;DHT22;41247;49.736;8.752;2023-12-29T15:19:47;9.30;99.90
55369;DHT22;41247;49.736;8.752;2023-12-29T15:23:27;9.30;99.90
55369;DHT22;41247;49.736;8.752;2023-12-29T15:27:09;9.30;99.90
55369;DHT22;41247;49.736;8.752;2023-12-29T15:30:49;9.30;99.90
55369;DHT22;41247;49.736;8.752;2023-12-29T15:34:30;9.20;99.90
55369;DHT22;41247;49.736;8.752;2023-12-29T15:38:12;9.10;99.90
55369;DHT22;41247;49.736;8.752;2023-12-29T15:41:52;9.00;99.90
55369;DHT22;41247;49.736;8.752;2023-12-29T15:45:33;8.90;99.90
55369;DHT22;41247;49.736;8.752;2023-12-29T15:49:14;8.90;99.90
55369;DHT22;41247;49.736;8.752;2023-12-29T15:52:54;8.80;99.90
55369;DHT22;41247;49.736;8.752;2023-12-29T15:56:35;8.80;99.90
55369;DHT22;41247;49.736;8.752;2023-12-29T16:00:16;8.80;99.90
55369;DHT22;41247;49.736;8.752;2023-12-29T16:03:57;8.80;99.90
55369;DHT22;41247;49.736;8.752;2023-12-29T16:07:37;8.80;99.90
55369;DHT22;41247;49.736;8.752;2023-12-29T16:11:22;8.80;99.90
55369;DHT22;41247;49.736;8.752;2023-12-29T16:15:11;8.80;99.90
55369;DHT22;41247;49.736;8.752;2023-12-29T16:18:52;8.80;99.90
55369;DHT22;41247;49.736;8.752;2023-12-29T16:22:32;8.70;99.90
55369;DHT22;41247;49.736;8.752;2023-12-29T16:26:13;8.70;99.90
55369;DHT22;41247;49.736;8.752;2023-12-29T16:29:54;8.70;99.90
55369;DHT22;41247;49.736;8.752;2023-12-29T16:33:35;8.70;99.90
55369;DHT22;41247;49.736;8.752;2023-12-29T16:37:16;8.70;99.90
55369;DHT22;41247;49.736;8.752;2023-12-29T16:40:56;8.60;99.90
55369;DHT22;41247;49.736;8.752;2023-12-29T16:44:37;8.60;99.90
55369;DHT22;41247;49.736;8.752;2023-12-29T16:48:17;8.60;99.90
55369;DHT22;41247;49.736;8.752;2023-12-29T16:51:58;8.60;99.90
55369;DHT22;41247;49.736;8.752;2023-12-29T16:55:39;8.60;99.90
55369;DHT22;41247;49.736;8.752;2023-12-29T16:59:19;8.60;99.90
55369;DHT22;41247;49.736;8.752;2023-12-29T17:03:00;8.60;99.90
55369;DHT22;41247;49.736;8.752;2023-12-29T17:06:41;8.60;99.90
55369;DHT22;41247;49.736;8.752;2023-12-29T17:10:21;8.60;99.90
55369;DHT22;41247;49.736;8.752;2023-12-29T17:14:02;8.60;99.90
55369;DHT22;41247;49.736;8.752;2023-12-29T17:17:46;8.60;99.90
55369;DHT22;41247;49.736;8.752;2023-12-29T17:21:27;8.60;99.90
55369;DHT22;41247;49.736;8.752;2023-12-29T17:25:08;8.70;99.90
55369;DHT22;41247;49.736;8.752;2023-12-29T17:28:48;8.60;99.90
55369;DHT22;41247;49.736;8.752;2023-12-29T17:32:29;8.60;99.90
55369;DHT22;41247;49.736;8.752;2023-12-29T17:36:10;8.60;99.90
55369;DHT22;41247;49.736;8.752;2023-12-29T17:39:51;8.60;99.90
55369;DHT22;41247;49.736;8.752;2023-12-29T17:43:32;8.60;99.90
55369;DHT22;41247;49.736;8.752;2023-12-29T17:47:13;8.60;99.90
55369;DHT22;41247;49.736;8.752;2023-12-29T17:50:53;8.70;99.90
55369;DHT22;41247;49.736;8.752;2023-12-29T17:54:35;8.60;99.90
55369;DHT22;41247;49.736;8.752;2023-12-29T17:58:16;8.60;99.90
55369;DHT22;41247;49.736;8.752;2023-12-29T18:01:57;8.60;99.90
55369;DHT22;41247;49.736;8.752;2023-12-29T18:05:37;8.60;99.90
55369;DHT22;41247;49.736;8.752;2023-12-29T18:09:18;8.60;99.90
55369;DHT22;41247;49.736;8.752;2023-12-29T18:12:58;8.60;99.90
55369;DHT22;41247;49.736;8.752;2023-12-29T18:16:41;8.50;99.90
55369;DHT22;41247;49.736;8.752;2023-12-29T18:20:21;8.50;99.90
55369;DHT22;41247;49.736;8.752;2023-12-29T18:24:02;8.50;99.90
55369;DHT22;41247;49.736;8.752;2023-12-29T18:27:43;8.50;99.90
55369;DHT22;41247;49.736;8.752;2023-12-29T18:31:24;8.60;99.90
55369;DHT22;41247;49.736;8.752;2023-12-29T18:35:04;8.60;99.90
55369;DHT22;41247;49.736;8.752;2023-12-29T18:38:46;8.50;99.90
55369;DHT22;41247;49.736;8.752;2023-12-29T18:42:27;8.60;99.90
55369;DHT22;41247;49.736;8.752;2023-12-29T18:46:08;8.50;99.90
55369;DHT22;41247;49.736;8.752;2023-12-29T18:49:48;8.50;99.90
55369;DHT22;41247;49.736;8.752;2023-12-29T18:53:29;8.60;99.90
55369;DHT22;41247;49.736;8.752;2023-12-29T18:57:10;8.50;99.90
55369;DHT22;41247;49.736;8.752;2023-12-29T19:00:50;8.50;99.90
55369;DHT22;41247;49.736;8.752;2023-12-29T19:04:31;8.50;99.90
55369;DHT22;41247;49.736;8.752;2023-12-29T19:08:13;8.50;99.90
55369;DHT22;41247;49.736;8.752;2023-12-29T19:11:53;8.50;99.90
55369;DHT22;41247;49.736;8.752;2023-12-29T19:15:34;8.60;99.90
55369;DHT22;41247;49.736;8.752;2023-12-29T19:19:15;8.50;99.90
55369;DHT22;41247;49.736;8.752;2023-12-29T19:22:55;8.50;99.90
55369;DHT22;41247;49.736;8.752;2023-12-29T19:26:36;8.50;99.90
55369;DHT22;41247;49.736;8.752;2023-12-29T19:30:16;8.50;99.90
55369;DHT22;41247;49.736;8.752;2023-12-29T19:33:57;8.50;99.90
55369;DHT22;41247;49.736;8.752;2023-12-29T19:37:38;8.40;99.90
55369;DHT22;41247;49.736;8.752;2023-12-29T19:41:19;8.40;99.90
55369;DHT22;41247;49.736;8.752;2023-12-29T19:45:00;8.40;99.90
55369;DHT22;41247;49.736;8.752;2023-12-29T19:48:40;8.40;99.90
55369;DHT22;41247;49.736;8.752;2023-12-29T19:52:21;8.40;99.90
55369;DHT22;41247;49.736;8.752;2023-12-29T19:56:02;8.40;99.90
55369;DHT22;41247;49.736;8.752;2023-12-29T19:59:42;8.40;99.90
55369;DHT22;41247;49.736;8.752;2023-12-29T20:03:23;8.40;99.90
55369;DHT22;41247;49.736;8.752;2023-12-29T20:07:04;8.40;99.90
55369;DHT22;41247;49.736;8.752;2023-12-29T20:10:44;8.40;99.90
55369;DHT22;41247;49.736;8.752;2023-12-29T20:14:25;8.40;99.90
55369;DHT22;41247;49.736;8.752;2023-12-29T20:18:06;8.40;99.90
55369;DHT22;41247;49.736;8.752;2023-12-29T20:21:47;8.30;99.90
55369;DHT22;41247;49.736;8.752;2023-12-29T20:25:27;8.30;99.90
55369;DHT22;41247;49.736;8.752;2023-12-29T20:29:08;8.20;99.90
55369;DHT22;41247;49.736;8.752;2023-12-29T20:32:48;8.20;99.90
55369;DHT22;41247;49.736;8.752;2023-12-29T20:36:29;8.20;99.90
55369;DHT22;41247;49.736;8.752;2023-12-29T20:40:10;8.10;99.90
55369;DHT22;41247;49.736;8.752;2023-12-29T20:43:51;8.10;99.90
55369;DHT22;41247;49.736;8.752;2023-12-29T20:47:32;8.10;99.90
55369;DHT22;41247;49.736;8.752;2023-12-29T20:51:13;8.10;99.90
55369;DHT22;41247;49.736;8.752;2023-12-29T20:54:54;8.10;99.90
55369;DHT22;41247;49.736;8.752;2023-12-29T20:58:34;8.20;99.90
55369;DHT22;41247;49.736;8.752;2023-12-29T21:02:15;8.30;99.90
55369;DHT22;41247;49.736;8.752;2023-12-29T21:05:55;8.30;99.90
55369;DHT22;41247;49.736;8.752;2023-12-29T21:09:36;8.30;99.90
55369;DHT22;41247;49.736;8.752;2023-12-29T21:13:17;8.30;99.90
55369;DHT22;41247;49.736;8.752;2023-12-29T21:16:57;8.40;99.90
55369;DHT22;41247;49.736;8.752;2023-12-29T21:20:38;8.40;99.90
55369;DHT22;41247;49.736;8.752;2023-12-29T21:24:18;8.50;99.90
55369;DHT22;41247;49.736;8.752;2023-12-29T21:27:59;8.50;99.90
55369;DHT22;41247;49.736;8.752;2023-12-29T21:31:40;8.60;99.90
55369;DHT22;41247;49.736;8.752;2023-12-29T21:35:20;8.50;99.90
55369;DHT22;41247;49.736;8.752;2023-12-29T21:39:01;8.40;99.90
55369;DHT22;41247;49.736;8.752;2023-12-29T21:42:42;8.10;99.90
55369;DHT22;41247;49.736;8.752;2023-12-29T21:46:22;8.00;99.90
55369;DHT22;41247;49.736;8.752;2023-12-29T21:50:03;7.90;99.90
55369;DHT22;41247;49.736;8.752;2023-12-29T21:53:44;7.80;99.90
55369;DHT22;41247;49.736;8.752;2023-12-29T21:57:24;7.70;99.90
55369;DHT22;41247;49.736;8.752;2023-12-29T22:01:34;7.60;99.90
55369;DHT22;41247;49.736;8.752;2023-12-29T22:05:15;7.60;99.90
55369;DHT22;41247;49.736;8.752;2023-12-29T22:08:59;7.50;99.90
55369;DHT22;41247;49.736;8.752;2023-12-29T22:12:40;7.50;99.90
55369;DHT22;41247;49.736;8.752;2023-12-29T22:16:22;7.40;99.90
55369;DHT22;41247;49.736;8.752;2023-12-29T22:20:03;7.40;99.90
55369;DHT22;41247;49.736;8.752;2023-12-29T22:23:45;7.40;99.90
55369;DHT22;41247;49.736;8.752;2023-12-29T22:27:26;7.40;99.90
55369;DHT22;41247;49.736;8.752;2023-12-29T22:31:06;7.40;99.90
55369;DHT22;41247;49.736;8.752;2023-12-29T22:34:47;7.60;99.90
55369;DHT22;41247;49.736;8.752;2023-12-29T22:38:27;7.70;99.90
55369;DHT22;41247;49.736;8.752;2023-12-29T22:42:08;7.70;99.90
55369;DHT22;41247;49.736;8.752;2023-12-29T22:45:55;7.80;99.90
55369;DHT22;41247;49.736;8.752;2023-12-29T22:49:36;7.80;99.90
55369;DHT22;41247;49.736;8.752;2023-12-29T22:53:17;7.90;99.90
55369;DHT22;41247;49.736;8.752;2023-12-29T22:56:57;7.90;99.90
55369;DHT22;41247;49.736;8.752;2023-12-29T23:00:38;7.90;99.90
55369;DHT22;41247;49.736;8.752;2023-12-29T23:04:19;8.00;99.90
55369;DHT22;41247;49.736;8.752;2023-12-29T23:08:00;8.00;99.90
55369;DHT22;41247;49.736;8.752;2023-12-29T23:11:41;8.00;99.90
55369;DHT22;41247;49.736;8.752;2023-12-29T23:15:22;8.00;99.90
55369;DHT22;41247;49.736;8.752;2023-12-29T23:19:03;8.10;99.90
55369;DHT22;41247;49.736;8.752;2023-12-29T23:22:43;8.10;99.90
55369;DHT22;41247;49.736;8.752;2023-12-29T23:26:24;8.10;99.90
55369;DHT22;41247;49.736;8.752;2023-12-29T23:30:05;8.10;99.90
55369;DHT22;41247;49.736;8.752;2023-12-29T23:33:46;8.10;99.90
55369;DHT22;41247;49.736;8.752;2023-12-29T23:37:27;8.10;99.90
55369;DHT22;41247;49.736;8.752;2023-12-29T23:41:07;8.20;99.90
55369;DHT22;41247;49.736;8.752;2023-12-29T23:44:48;8.10;99.90